Arlington, Alabama
Current Conditions -  °F | °C
As of 8:15 PM on Saturday 22 Nov 2014 (Local Time) from KDYA Reporting Station
Overcast Overcast  
Wind Chill: 62°   Ceiling: 1800
Heat Index: 62°   Visibility: 10mi
Dew Point: 55°   Wind: 10mph
Humidity: 76%   Direction: 110°ESE
Pressure: 30.1"   Gusts: 17mph
Location:  32.06°N, 87.59°W
Report Text: KDYA 230215Z AUTO 11009G15KT 10SM OVC018 17/13 A3010 RMK AO2 T01670125
Loading
Personal Weather Stations






























Interactive Weather Map New forecast layout! Learn more

10-Day Weather Forecast

Advertisements
Track Severe Weather on mobile